Elvira, Iowa
Current Conditions -  °F | °C
As of 6:15 AM on Monday 24 Nov 2014 (Local Time) from KCWI Reporting Station
Overcast Overcast  
Wind Chill: 22°   Ceiling: 600
Heat Index: 34°   Visibility: 2.5mi
Dew Point: 28°   Wind: 22mph
Humidity: 81%   Direction: 290°WNW
Pressure: 29.23"   Gusts: 32mph
Location:  41.8802°N, 90.2992°W
Report Text: KCWI 241215Z AUTO 29019G28KT 2 1/2SM OVC006 01/M02 A2923 RMK AO1
Loading
Personal Weather Stations






























Interactive Weather Map New forecast layout! Learn more

10-Day Weather Forecast

Advertisements
Track Severe Weather on mobile